createdAt,value
2019-04-20T00:00:41.678Z,71.70
2019-04-20T00:03:09.598Z,72.00
2019-04-20T00:05:41.295Z,72.30
2019-04-20T00:08:16.817Z,72.00
2019-04-20T00:10:54.335Z,71.70
2019-04-20T00:13:24.247Z,71.80
2019-04-20T00:15:49.546Z,71.60
2019-04-20T00:18:21.074Z,71.40
2019-04-20T00:21:00.244Z,71.20
2019-04-20T00:23:36.747Z,71.20
2019-04-20T00:26:32.151Z,71.20
2019-04-20T00:29:06.938Z,71.70
2019-04-20T00:31:39.288Z,72.20
2019-04-20T00:34:03.787Z,72.90
2019-04-20T00:36:27.262Z,73.10
2019-04-20T00:39:03.714Z,73.50
2019-04-20T00:41:35.107Z,73.90
2019-04-20T00:44:12.241Z,74.30
2019-04-20T00:46:53.491Z,74.80
2019-04-20T00:49:27.291Z,75.20
2019-04-20T00:52:05.170Z,75.60
2019-04-20T00:54:13.627Z,75.90
2019-04-20T00:56:45.349Z,75.90
2019-04-20T00:59:27.570Z,76.00
2019-04-20T01:02:06.433Z,76.10
2019-04-20T01:04:44.685Z,76.30
2019-04-20T01:07:06.209Z,76.50
2019-04-20T01:09:27.039Z,76.70
2019-04-20T01:11:58.469Z,76.80
2019-04-20T01:14:37.945Z,77.00
2019-04-20T01:17:11.406Z,76.90
2019-04-20T01:19:32.842Z,77.30
2019-04-20T01:22:07.888Z,77.30
2019-04-20T01:24:39.891Z,77.40
2019-04-20T01:27:23.682Z,77.50
2019-04-20T01:29:46.766Z,77.40
2019-04-20T01:32:20.986Z,77.60
2019-04-20T01:34:55.090Z,77.40
2019-04-20T01:37:31.735Z,77.40
2019-04-20T01:39:52.021Z,77.80
2019-04-20T01:42:19.254Z,78.10
2019-04-20T01:44:52.364Z,77.80
2019-04-20T01:47:23.847Z,78.50
2019-04-20T01:49:59.895Z,78.70
2019-04-20T01:52:34.990Z,79.20
2019-04-20T01:55:27.782Z,80.50
2019-04-20T01:58:07.701Z,81.20
2019-04-20T02:00:32.772Z,80.80
2019-04-20T02:03:15.004Z,80.40
2019-04-20T02:05:51.427Z,80.10
2019-04-20T02:08:21.477Z,80.50
2019-04-20T02:10:54.427Z,80.40
2019-04-20T02:13:26.389Z,80.30
2019-04-20T02:16:11.478Z,80.50
2019-04-20T02:18:44.237Z,80.90
2019-04-20T02:21:25.733Z,81.10
2019-04-20T02:23:48.287Z,82.10
2019-04-20T02:26:12.528Z,82.90
2019-04-20T02:29:05.686Z,82.70
2019-04-20T02:32:01.466Z,82.50
2019-04-20T02:34:29.228Z,82.70
2019-04-20T02:37:30.182Z,82.70
2019-04-20T02:39:46.254Z,82.50
2019-04-20T02:42:17.588Z,82.20
2019-04-20T02:47:24.633Z,82.60
2019-04-20T02:49:52.410Z,82.80
2019-04-20T02:52:33.512Z,83.50
2019-04-20T02:57:33.498Z,84.80
2019-04-20T03:00:09.145Z,85.20
2019-04-20T03:02:16.739Z,85.30
2019-04-20T03:04:40.005Z,85.20
2019-04-20T03:07:15.684Z,85.20
2019-04-20T03:09:50.167Z,86.00
2019-04-20T03:12:32.886Z,86.30
2019-04-20T03:14:52.786Z,86.70
2019-04-20T03:17:37.097Z,86.90
2019-04-20T03:19:57.271Z,87.80
2019-04-20T03:23:00.952Z,87.40
2019-04-20T03:25:15.216Z,87.90
2019-04-20T03:27:40.982Z,88.40
2019-04-20T03:31:16.511Z,88.00
2019-04-20T03:35:46.026Z,88.80
2019-04-20T03:38:10.707Z,89.60
2019-04-20T03:40:38.969Z,89.60
2019-04-20T03:42:54.812Z,89.70
2019-04-20T03:45:27.084Z,89.90
2019-04-20T03:48:10.270Z,90.10
2019-04-20T03:50:50.446Z,90.20
2019-04-20T03:53:25.226Z,90.20
2019-04-20T03:56:18.408Z,90.30
2019-04-20T03:58:47.144Z,90.30
2019-04-20T04:01:35.853Z,90.40
2019-04-20T04:04:05.373Z,90.50
2019-04-20T04:06:23.494Z,90.60
2019-04-20T04:08:57.594Z,90.60
2019-04-20T04:11:31.492Z,90.60
2019-04-20T04:13:48.185Z,90.60
2019-04-20T04:16:21.886Z,90.50
2019-04-20T04:19:01.583Z,90.50
2019-04-20T04:21:41.145Z,90.50
2019-04-20T04:24:09.575Z,90.40
2019-04-20T04:26:42.752Z,90.40
2019-04-20T04:29:27.215Z,90.50
2019-04-20T04:32:03.767Z,90.40
2019-04-20T04:34:27.471Z,90.50
2019-04-20T04:37:00.531Z,90.30
2019-04-20T04:39:32.237Z,90.40
2019-04-20T04:42:11.653Z,90.40
2019-04-20T04:44:26.387Z,90.40
2019-04-20T04:46:53.386Z,90.40
2019-04-20T04:49:25.823Z,90.40
2019-04-20T04:51:58.754Z,90.60
2019-04-20T04:54:28.921Z,90.50
2019-04-20T04:56:52.658Z,90.60
2019-04-20T04:59:24.004Z,90.30
2019-04-20T05:01:56.733Z,90.20
2019-04-20T05:05:07.990Z,89.50
2019-04-20T05:07:46.385Z,90.00
2019-04-20T05:10:03.549Z,90.10
2019-04-20T05:12:35.942Z,90.40
2019-04-20T05:15:21.192Z,90.40
2019-04-20T05:18:02.071Z,90.50
2019-04-20T05:20:37.245Z,90.40
2019-04-20T05:23:06.061Z,90.30
2019-04-20T05:25:56.964Z,90.30
2019-04-20T05:28:27.620Z,90.00
2019-04-20T05:30:52.486Z,89.10
2019-04-20T05:33:30.235Z,88.80
2019-04-20T05:36:16.373Z,88.50
2019-04-20T05:38:47.203Z,88.00
2019-04-20T05:41:12.830Z,88.50
2019-04-20T05:43:49.315Z,88.30
2019-04-20T05:46:21.691Z,87.50
2019-04-20T05:48:59.759Z,86.80
2019-04-20T05:51:29.514Z,86.70
2019-04-20T05:54:01.144Z,86.70
2019-04-20T05:56:35.479Z,86.30
2019-04-20T05:58:59.427Z,85.90
2019-04-20T06:01:40.857Z,85.40
2019-04-20T06:04:04.244Z,84.90
2019-04-20T06:06:37.735Z,84.70
2019-04-20T06:09:23.048Z,84.60
2019-04-20T06:12:07.507Z,84.00
2019-04-20T06:14:31.616Z,84.20
2019-04-20T06:17:11.275Z,83.00
2019-04-20T06:19:54.655Z,82.30
2019-04-20T06:22:37.905Z,81.60
2019-04-20T06:27:45.074Z,80.60
2019-04-20T06:30:12.277Z,79.90
2019-04-20T06:33:31.314Z,76.70
2019-04-20T06:41:05.250Z,71.00
2019-04-20T06:43:31.487Z,71.50
2019-04-20T06:46:09.817Z,71.80
2019-04-20T06:48:40.286Z,70.30
2019-04-20T06:51:09.226Z,68.30
2019-04-20T06:53:47.393Z,66.50
2019-04-20T06:56:30.727Z,64.80
2019-04-20T06:59:20.010Z,63.10
2019-04-20T07:01:40.221Z,62.80
2019-04-20T07:04:29.014Z,62.50
2019-04-20T07:09:18.413Z,62.10
2019-04-20T07:11:42.661Z,61.80
2019-04-20T07:13:59.636Z,61.80
2019-04-20T07:16:53.315Z,60.30
2019-04-20T07:19:31.240Z,59.10
2019-04-20T07:22:18.515Z,59.00
2019-04-20T07:25:01.286Z,58.80
2019-04-20T07:27:19.785Z,56.70
2019-04-20T07:29:58.975Z,57.00
2019-04-20T07:32:46.123Z,57.90
2019-04-20T07:35:09.856Z,56.80
2019-04-20T07:40:16.183Z,54.60
2019-04-20T07:42:52.378Z,54.50
2019-04-20T07:45:28.404Z,55.50
2019-04-20T07:47:59.147Z,55.90
2019-04-20T07:50:22.850Z,54.10
2019-04-20T07:52:51.416Z,54.30
2019-04-20T07:55:37.056Z,54.60
2019-04-20T07:57:57.536Z,54.20
2019-04-20T08:00:53.264Z,53.20
2019-04-20T08:03:20.436Z,52.20
2019-04-20T08:05:36.717Z,50.90
2019-04-20T08:08:16.817Z,51.20
2019-04-20T08:10:45.244Z,48.70
2019-04-20T08:15:58.747Z,49.00
2019-04-20T08:20:58.482Z,47.40
2019-04-20T08:23:29.568Z,48.40
2019-04-20T08:25:54.380Z,47.80
2019-04-20T08:28:23.298Z,47.30
2019-04-20T08:31:13.913Z,47.50
2019-04-20T08:34:07.521Z,47.30
2019-04-20T08:36:36.041Z,47.00
2019-04-20T08:41:37.025Z,47.10
2019-04-20T08:46:55.813Z,47.20
2019-04-20T08:49:22.031Z,46.70
2019-04-20T08:51:55.040Z,46.10
2019-04-20T08:54:17.623Z,43.50
2019-04-20T08:56:42.476Z,43.70
2019-04-20T08:59:11.521Z,43.90
2019-04-20T09:01:42.639Z,43.70
2019-04-20T09:04:20.171Z,43.60
2019-04-20T09:06:58.790Z,39.70
2019-04-20T09:09:44.534Z,38.50
2019-04-20T09:12:07.546Z,38.50
2019-04-20T09:14:22.063Z,39.30
2019-04-20T09:17:14.114Z,39.70
2019-04-20T09:19:52.689Z,39.50
2019-04-20T09:22:45.726Z,39.10
2019-04-20T09:27:47.651Z,36.50
2019-04-20T09:30:30.315Z,37.10
2019-04-20T09:33:14.335Z,36.60
2019-04-20T09:35:43.249Z,36.60
2019-04-20T09:38:14.599Z,35.70
2019-04-20T09:40:50.588Z,35.70
2019-04-20T09:43:08.806Z,35.30
2019-04-20T09:45:48.131Z,36.00
2019-04-20T09:48:23.345Z,36.80
2019-04-20T09:51:11.538Z,36.20
2019-04-20T09:53:33.878Z,36.30
2019-04-20T09:56:06.616Z,36.00
2019-04-20T09:58:45.164Z,36.80
2019-04-20T10:01:11.110Z,37.90
2019-04-20T10:03:29.126Z,37.40
2019-04-20T10:05:59.427Z,38.80
2019-04-20T10:08:34.009Z,36.00
2019-04-20T10:11:01.634Z,36.40
2019-04-20T10:13:32.211Z,36.70
2019-04-20T10:16:03.773Z,36.70
2019-04-20T10:18:39.283Z,37.10
2019-04-20T10:21:07.340Z,37.00
2019-04-20T10:23:38.701Z,35.30
2019-04-20T10:26:09.126Z,35.10
2019-04-20T10:28:39.493Z,34.60
2019-04-20T10:31:10.656Z,34.60
2019-04-20T10:33:41.753Z,35.00
2019-04-20T10:36:17.348Z,33.40
2019-04-20T10:38:48.523Z,32.30
2019-04-20T10:41:29.622Z,31.40
2019-04-20T10:44:00.768Z,31.20
2019-04-20T10:46:31.195Z,31.50
2019-04-20T10:49:04.306Z,31.10
2019-04-20T10:51:35.595Z,30.10
2019-04-20T10:54:06.699Z,30.40
2019-04-20T10:56:41.451Z,30.10
2019-04-20T10:59:11.941Z,31.10
2019-04-20T11:01:43.419Z,31.50
2019-04-20T11:04:14.693Z,30.30
2019-04-20T11:06:46.925Z,29.40
2019-04-20T11:09:18.474Z,29.60
2019-04-20T11:11:50.203Z,30.20
2019-04-20T11:14:26.376Z,32.00
2019-04-20T11:16:52.595Z,30.80
2019-04-20T11:19:23.334Z,30.80
2019-04-20T11:21:54.450Z,30.50
2019-04-20T11:24:25.948Z,28.80
2019-04-20T11:26:56.429Z,30.00
2019-04-20T11:29:26.751Z,30.00
2019-04-20T11:31:58.133Z,30.10
2019-04-20T11:34:42.465Z,30.20
2019-04-20T11:37:13.413Z,28.50
2019-04-20T11:39:45.165Z,29.80
2019-04-20T11:42:17.390Z,29.40
2019-04-20T11:44:48.924Z,30.40
2019-04-20T11:47:19.196Z,30.30
2019-04-20T11:49:49.507Z,30.40
2019-04-20T11:52:21.541Z,30.60
2019-04-20T11:54:54.563Z,30.80
2019-04-20T11:57:29.265Z,30.40
2019-04-20T12:00:01.126Z,30.30
2019-04-20T12:02:44.378Z,31.10
2019-04-20T12:05:30.537Z,31.10
2019-04-20T12:08:05.077Z,31.80
2019-04-20T12:10:37.094Z,31.80
2019-04-20T12:13:07.935Z,31.90
2019-04-20T12:15:38.956Z,30.20
2019-04-20T12:18:09.615Z,30.90
2019-04-20T12:20:40.878Z,30.40
2019-04-20T12:23:12.676Z,29.40
2019-04-20T12:25:44.641Z,28.90
2019-04-20T12:28:15.755Z,29.50
2019-04-20T12:30:46.174Z,29.90
2019-04-20T12:33:17.694Z,29.30
2019-04-20T12:35:48.292Z,29.40
2019-04-20T12:38:19.104Z,28.90
2019-04-20T12:40:50.327Z,29.20
2019-04-20T12:43:20.739Z,29.10
2019-04-20T12:45:51.691Z,29.50
2019-04-20T12:48:22.135Z,29.60
2019-04-20T12:50:57.474Z,28.50
2019-04-20T12:53:28.628Z,28.50
2019-04-20T12:55:59.236Z,25.20
2019-04-20T12:58:30.570Z,27.00
2019-04-20T13:01:02.474Z,28.30
2019-04-20T13:03:33.495Z,26.00
2019-04-20T13:06:03.849Z,26.80
2019-04-20T13:08:41.158Z,26.80
2019-04-20T13:11:08.760Z,27.20
2019-04-20T13:13:44.212Z,26.60
2019-04-20T13:16:20.612Z,27.20
2019-04-20T13:18:55.232Z,27.90
2019-04-20T13:21:27.002Z,28.40
2019-04-20T13:23:58.495Z,28.20
2019-04-20T13:26:29.016Z,27.90
2019-04-20T13:29:11.070Z,27.70
2019-04-20T13:31:37.943Z,27.90
2019-04-20T13:34:09.557Z,27.70
2019-04-20T13:36:40.484Z,28.40
2019-04-20T13:39:10.705Z,28.70
2019-04-20T13:41:42.217Z,28.30
2019-04-20T13:44:13.668Z,28.10
2019-04-20T13:46:52.182Z,28.10
2019-04-20T13:49:23.019Z,28.30
2019-04-20T13:51:54.578Z,27.70
2019-04-20T13:54:28.007Z,27.70
2019-04-20T13:57:00.160Z,28.10
2019-04-20T13:59:50.738Z,28.50
2019-04-20T14:02:23.472Z,29.00
2019-04-20T14:04:57.424Z,29.10
2019-04-20T14:07:29.295Z,29.70
2019-04-20T14:09:59.609Z,29.30
2019-04-20T14:12:36.890Z,29.10
2019-04-20T14:15:02.874Z,29.80
2019-04-20T14:17:34.978Z,29.60
2019-04-20T14:20:11.425Z,29.70
2019-04-20T14:22:38.920Z,29.70
2019-04-20T14:25:09.492Z,29.60
2019-04-20T14:27:40.272Z,29.50
2019-04-20T14:30:11.134Z,29.60
2019-04-20T14:32:42.942Z,29.80
2019-04-20T14:35:14.523Z,29.40
2019-04-20T14:37:45.971Z,29.20
2019-04-20T14:40:18.665Z,29.30
2019-04-20T14:42:53.000Z,28.90
2019-04-20T14:45:22.801Z,29.80
2019-04-20T14:47:54.038Z,29.10
2019-04-20T14:50:27.521Z,29.10
2019-04-20T14:52:57.920Z,29.60
2019-04-20T14:55:29.224Z,29.30
2019-04-20T14:58:31.442Z,29.30
2019-04-20T15:01:23.037Z,29.40
2019-04-20T15:03:59.858Z,28.50
2019-04-20T15:06:25.820Z,28.70
2019-04-20T15:09:00.954Z,29.20
2019-04-20T15:11:38.338Z,29.30
2019-04-20T15:14:08.860Z,29.10
2019-04-20T15:16:40.434Z,29.30
2019-04-20T15:19:13.785Z,29.40
2019-04-20T15:21:47.294Z,29.10
2019-04-20T15:24:17.904Z,29.00
2019-04-20T15:26:48.760Z,29.20
2019-04-20T15:29:20.159Z,29.00
2019-04-20T15:31:52.283Z,29.20
2019-04-20T15:34:24.650Z,29.10
2019-04-20T15:36:55.962Z,29.40
2019-04-20T15:39:27.350Z,29.20
2019-04-20T15:41:59.096Z,29.10
2019-04-20T15:44:29.473Z,28.60
2019-04-20T15:46:59.691Z,29.00
2019-04-20T15:49:30.018Z,28.70
2019-04-20T15:52:01.653Z,28.60
2019-04-20T15:54:33.705Z,28.50
2019-04-20T15:57:12.329Z,28.30
2019-04-20T15:59:35.964Z,28.60
2019-04-20T16:02:09.257Z,28.20
2019-04-20T16:04:44.985Z,27.90
2019-04-20T16:07:17.182Z,28.00
2019-04-20T16:09:48.453Z,27.00
2019-04-20T16:12:20.695Z,26.60
2019-04-20T16:14:51.420Z,26.60
2019-04-20T16:17:24.286Z,27.10
2019-04-20T16:20:09.113Z,27.00
2019-04-20T16:22:36.303Z,26.90
2019-04-20T16:25:15.452Z,27.20
2019-04-20T16:27:45.830Z,27.10
2019-04-20T16:30:17.850Z,26.80
2019-04-20T16:32:48.296Z,27.00
2019-04-20T16:35:18.753Z,26.80
2019-04-20T16:37:50.757Z,27.00
2019-04-20T16:40:25.322Z,27.30
2019-04-20T16:42:56.389Z,27.40
2019-04-20T16:45:27.867Z,27.20
2019-04-20T16:47:59.988Z,26.30
2019-04-20T16:50:31.098Z,26.40
2019-04-20T16:53:02.946Z,26.40
2019-04-20T16:55:34.740Z,26.20
2019-04-20T16:58:06.321Z,26.20
2019-04-20T17:00:37.713Z,26.20
2019-04-20T17:03:09.118Z,25.60
2019-04-20T17:05:39.543Z,25.40
2019-04-20T17:08:11.271Z,24.90
2019-04-20T17:10:42.053Z,25.00
2019-04-20T17:13:16.719Z,25.20
2019-04-20T17:15:49.848Z,25.70
2019-04-20T17:18:21.292Z,26.10
2019-04-20T17:20:53.366Z,26.30
2019-04-20T17:23:27.651Z,26.60
2019-04-20T17:25:59.819Z,27.10
2019-04-20T17:28:49.035Z,27.40
2019-04-20T17:31:33.569Z,27.60
2019-04-20T17:34:25.025Z,27.80
2019-04-20T17:36:39.894Z,28.00
2019-04-20T17:39:13.443Z,28.10
2019-04-20T17:42:01.862Z,28.30
2019-04-20T17:44:30.298Z,28.30
2019-04-20T17:46:58.682Z,28.40
2019-04-20T17:49:31.406Z,28.50
2019-04-20T17:52:12.330Z,28.70
2019-04-20T17:54:27.192Z,28.90
2019-04-20T17:56:58.203Z,29.20
2019-04-20T17:59:30.283Z,29.40
2019-04-20T18:02:17.737Z,29.80
2019-04-20T18:05:17.599Z,30.00
2019-04-20T18:07:40.721Z,30.20
2019-04-20T18:10:11.459Z,30.40
2019-04-20T18:12:34.386Z,30.60
2019-04-20T18:15:21.743Z,30.90
2019-04-20T18:18:15.402Z,31.20
2019-04-20T18:20:32.713Z,31.30
2019-04-20T18:23:04.331Z,31.60
2019-04-20T18:26:01.498Z,31.60
2019-04-20T18:28:20.925Z,31.90
2019-04-20T18:30:52.550Z,32.00
2019-04-20T18:33:24.959Z,32.20
2019-04-20T18:35:54.055Z,32.20
2019-04-20T18:38:26.057Z,32.40
2019-04-20T18:41:02.669Z,33.30
2019-04-20T18:43:29.580Z,32.80
2019-04-20T18:46:18.051Z,32.80
2019-04-20T18:48:54.359Z,32.90
2019-04-20T18:51:05.846Z,32.90
2019-04-20T18:53:42.714Z,33.00
2019-04-20T18:56:09.503Z,33.30
2019-04-20T18:58:40.831Z,33.40
2019-04-20T19:01:12.848Z,33.50
2019-04-20T19:03:45.533Z,33.70
2019-04-20T19:06:16.032Z,33.90
2019-04-20T19:08:51.750Z,34.00
2019-04-20T19:11:21.620Z,34.10
2019-04-20T19:14:17.387Z,34.30
2019-04-20T19:16:55.693Z,34.40
2019-04-20T19:19:25.754Z,34.50
2019-04-20T19:21:49.944Z,34.70
2019-04-20T19:24:26.022Z,34.70
2019-04-20T19:26:58.324Z,35.10
2019-04-20T19:29:34.403Z,35.00
2019-04-20T19:32:17.958Z,35.20
2019-04-20T19:34:44.811Z,35.30
2019-04-20T19:37:14.070Z,35.50
2019-04-20T19:39:49.397Z,35.60
2019-04-20T19:42:25.233Z,35.60
2019-04-20T19:44:53.876Z,35.90
2019-04-20T19:47:35.317Z,35.90
2019-04-20T19:49:56.448Z,35.90
2019-04-20T19:52:46.354Z,36.10
2019-04-20T19:55:06.360Z,36.10
2019-04-20T19:57:37.224Z,36.30
2019-04-20T19:59:56.101Z,36.50
2019-04-20T20:02:25.867Z,36.50
2019-04-20T20:05:02.727Z,36.60
2019-04-20T20:07:41.196Z,36.70
2019-04-20T20:10:07.754Z,37.00
2019-04-20T20:12:49.382Z,37.00
2019-04-20T20:15:24.267Z,37.10
2019-04-20T20:18:12.778Z,37.20
2019-04-20T20:20:41.177Z,37.40
2019-04-20T20:22:57.286Z,37.50
2019-04-20T20:25:32.964Z,37.60
2019-04-20T20:28:13.444Z,37.80
2019-04-20T20:30:42.195Z,38.00
2019-04-20T20:33:22.107Z,38.10
2019-04-20T20:35:45.893Z,38.30
2019-04-20T20:38:18.335Z,38.50
2019-04-20T20:40:52.408Z,38.50
2019-04-20T20:43:21.788Z,38.70
2019-04-20T20:45:56.431Z,38.90
2019-04-20T20:48:30.034Z,39.10
2019-04-20T20:51:04.917Z,39.20
2019-04-20T20:53:35.358Z,39.30
2019-04-20T20:56:09.242Z,39.40
2019-04-20T20:58:43.850Z,39.50
2019-04-20T21:01:09.969Z,40.20
2019-04-20T21:03:43.529Z,40.70
2019-04-20T21:06:11.755Z,40.90
2019-04-20T21:08:48.685Z,41.40
2019-04-20T21:11:22.005Z,41.70
2019-04-20T21:13:50.989Z,42.50
2019-04-20T21:16:26.638Z,42.80
2019-04-20T21:19:12.939Z,43.10
2019-04-20T21:21:39.035Z,43.40
2019-04-20T21:24:10.828Z,43.60
2019-04-20T21:26:44.310Z,44.00
2019-04-20T21:29:10.425Z,44.40
2019-04-20T21:31:43.417Z,44.80
2019-04-20T21:34:18.099Z,45.40
2019-04-20T21:36:47.282Z,46.20
2019-04-20T21:39:30.235Z,48.50
2019-04-20T21:41:58.532Z,48.90
2019-04-20T21:44:28.499Z,48.00
2019-04-20T21:46:56.224Z,48.70
2019-04-20T21:49:43.692Z,48.60
2019-04-20T21:52:02.960Z,49.10
2019-04-20T21:54:30.218Z,50.40
2019-04-20T21:57:03.855Z,50.20
2019-04-20T21:59:41.960Z,50.70
2019-04-20T22:02:16.692Z,51.20
2019-04-20T22:04:37.590Z,51.50
2019-04-20T22:07:08.119Z,51.70
2019-04-20T22:09:45.295Z,52.20
2019-04-20T22:12:11.949Z,52.50
2019-04-20T22:14:43.818Z,52.80
2019-04-20T22:17:21.135Z,53.30
2019-04-20T22:20:02.929Z,53.80
2019-04-20T22:22:38.692Z,54.50
2019-04-20T22:25:02.601Z,55.40
2019-04-20T22:27:27.871Z,56.00
2019-04-20T22:29:54.460Z,56.30
2019-04-20T22:32:25.874Z,57.80
2019-04-20T22:35:01.521Z,57.00
2019-04-20T22:37:31.911Z,57.80
2019-04-20T22:40:03.266Z,57.70
2019-04-20T22:42:42.610Z,57.00
2019-04-20T22:45:12.395Z,57.50
2019-04-20T22:47:40.845Z,57.50
2019-04-20T22:50:24.939Z,57.70
2019-04-20T22:52:55.289Z,57.90
2019-04-20T22:55:41.088Z,58.20
2019-04-20T22:57:57.433Z,58.20
2019-04-20T23:00:31.288Z,58.50
2019-04-20T23:02:52.499Z,58.90
2019-04-20T23:05:22.838Z,59.10
2019-04-20T23:07:53.076Z,59.30
2019-04-20T23:10:30.453Z,59.40
2019-04-20T23:12:58.259Z,59.30
2019-04-20T23:15:28.054Z,60.40
2019-04-20T23:17:58.377Z,60.40
2019-04-20T23:20:32.645Z,60.70
2019-04-20T23:23:02.883Z,60.90
2019-04-20T23:25:36.596Z,61.20
2019-04-20T23:28:11.349Z,61.10
2019-04-20T23:30:40.682Z,60.90
2019-04-20T23:33:11.803Z,60.90
2019-04-20T23:35:46.481Z,60.80
2019-04-20T23:38:17.975Z,59.40
2019-04-20T23:40:47.833Z,59.00
2019-04-20T23:43:25.386Z,58.70
2019-04-20T23:46:19.616Z,58.30
2019-04-20T23:49:19.976Z,58.10
2019-04-20T23:52:05.518Z,58.00
2019-04-20T23:54:20.180Z,57.80
2019-04-20T23:56:45.860Z,57.50
2019-04-20T23:59:19.210Z,57.40
